• Join FlightAware (Why Join?)
  • Login
  • US Flag 
07:45PM EST


 

Airport Tracker/Info


-or-


 

Live Flight TrackerFlight Track Log ✈ NKS416 ✈ 15-Mar-2014 ✈ KFLL - KIAG

Flight Track Log - Related Links

Times and Time Zones

All times are in EDT time to prevent confusion due to time zone crossing. See the NKS416 flight status page for this flight to view local times or setup timezone preferences in your user account.

Time Position Orientation Groundspeed Altitude Reporting Facility
EDT Latitude Longitude Course Direction KTS MPH feet Rate Location/Type
10:52PM 26.0750 -80.1344 81° East 179 206 800  Level Miami Center
10:52PM 26.0800 -80.0997 81° East 182 209 2,000 1,740 Climbing Miami Center
10:53PM 26.0919 -80.0261 80° East 232 267 3,700 2,280 Climbing Miami Center
10:54PM 26.1250 -79.9506 64° Northeast 246 283 6,700 2,820 Climbing Miami Center
10:55PM 26.1642 -79.8706 61° Northeast 265 305 9,300 2,160 Climbing Miami Center
10:56PM 26.2036 -79.7858 63° Northeast 288 331 11,000 1,680 Climbing Miami Center
10:57PM 26.2494 -79.6853 63° Northeast 329 379 12,700 1,980 Climbing Miami Center
10:58PM 26.3161 -79.5778 55° Northeast 370 426 15,100 1,620 Climbing Miami Center
11:05PM 26.9675 -79.1870 26° Northeast 450 518 25,100 1,500 Climbing FlightAware ADS-B (KMCO)
11:05PM 27.0282 -79.1544 26° Northeast 455 524 25,700 1,200 Climbing FlightAware ADS-B (KMCO)
11:06PM 27.0865 -79.1261 17° North 449 517 26,300 1,080 Climbing FlightAware ADS-B (KMCO)
11:06PM 27.1464 -79.1151 North 444 511 26,800 960 Climbing FlightAware ADS-B (KMCO)
11:07PM 27.2103 -79.1051 North 450 518 27,300 900 Climbing FlightAware ADS-B (KMCO)
11:07PM 27.2726 -79.0951 North 455 524 27,700 960 Climbing FlightAware ADS-B (KMCO)
11:08PM 27.3372 -79.0847 North 458 527 28,300 1,260 Climbing FlightAware ADS-B (KMCO)
11:08PM 27.3974 -79.0750 North 457 526 29,000 1,200 Climbing FlightAware ADS-B (KMCO)
11:09PM 27.4627 -79.0646 North 459 528 29,500 960 Climbing FlightAware ADS-B (KMCO)
11:09PM 27.5261 -79.0544 North 461 531 30,000 1,620 Climbing FlightAware ADS-B (KMCO)
11:10PM 27.6089 -79.0409 North 445 512 31,400 1,920 Climbing FlightAware ADS-B (KMCO)
11:11PM 27.6697 -79.0310 North 437 503 32,300 1,620 Climbing FlightAware ADS-B (KMCO)
11:11PM 27.7691 -79.0150 North 424 488 33,600 1,020 Climbing FlightAware ADS-B (KMCO)
11:12PM 27.8491 -79.0022 North 431 496 33,900 660 Climbing FlightAware ADS-B (KMCO)
11:13PM 27.9275 -78.9896 North 432 497 34,500 780 Climbing FlightAware ADS-B (KMCO)
11:13PM 27.9839 -78.9804 North 434 499 34,800 480 Climbing FlightAware ADS-B (KMCO)
11:14PM 28.0441 -78.9706 North 437 503 35,000 180 Climbing FlightAware ADS-B (KMCO)
11:14PM 28.1061 -78.9605 North 443 510 35,000  Level FlightAware ADS-B (KMCO)
11:15PM 28.1697 -78.9502 North 445 512 35,000  Level FlightAware ADS-B (KMCO)
11:15PM 28.2316 -78.9400 North 444 511 35,000  Level FlightAware ADS-B (KMCO)
11:16PM 28.2932 -78.9299 North 444 511 35,000  Level FlightAware ADS-B (KMCO)
11:16PM 28.3498 -78.9207 North 444 511 35,000  Level FlightAware ADS-B (KMCO)
11:17PM 28.4254 -78.9082 North 443 510 35,000  Level FlightAware ADS-B (KMCO)
11:20PM 28.8226 -78.8429 North 443 510 35,000  Level FlightAware ADS-B (KMCO)
11:21PM 28.9758 -78.8208 North 440 506 35,000  Level Miami Center
11:22PM 29.0972 -78.7992 North 440 506 35,000  Level Miami Center
11:23PM 29.2247 -78.7825 North 440 506 35,000  Level Miami Center
11:24PM 29.3189 -78.7625 10° North 440 506 35,000  Level Miami Center
11:25PM 29.4653 -78.7389 North 445 512 35,000 -60 Level Miami Center
11:28PM 29.7381 -78.6903 North 427 491 34,900 -60 Descending Jacksonville Center
11:29PM 29.8606 -78.6706 North 432 497 34,900  Level Jacksonville Center
11:30PM 29.9767 -78.6464 10° North 430 495 35,000  Climbing Jacksonville Center
11:31PM 30.1036 -78.6336 North 435 501 35,000 -60 Level Jacksonville Center
11:32PM 30.2300 -78.6089 10° North 435 501 34,900 -60 Descending Jacksonville Center
11:33PM 30.3461 -78.5867 North 429 494 34,900  Level Jacksonville Center
11:34PM 30.4750 -78.5664 North 440 506 35,000  Climbing Jacksonville Center
11:35PM 30.5953 -78.5489 North 443 510 35,000  Level Jacksonville Center
11:36PM 30.7219 -78.5286 North 445 512 35,000 -60 Level Jacksonville Center
11:37PM 30.8422 -78.5036 10° North 440 506 34,900  Descending Jacksonville Center
11:38PM 30.9583 -78.4814 North 433 498 35,000  Climbing Jacksonville Center
11:39PM 31.0725 -78.4639 North 442 509 35,000 -60 Level Jacksonville Center
11:40PM 31.1950 -78.4436 North 442 509 34,900 -60 Descending Jacksonville Center
11:41PM 31.3175 -78.4233 North 442 509 34,900  Level Jacksonville Center
11:42PM 31.4378 -78.4028 North 447 514 34,900  Level Jacksonville Center
11:43PM 31.5600 -78.3775 10° North 441 507 34,900  Level Jacksonville Center
11:44PM 31.6825 -78.3569 North 446 513 35,000  Climbing Jacksonville Center
11:45PM 31.8050 -78.3361 North 441 507 35,000  Level Jacksonville Center
11:46PM 31.9272 -78.3156 North 446 513 35,000  Level Jacksonville Center
11:47PM 32.0494 -78.2922 North 446 513 35,000 -60 Level Jacksonville Center
11:48PM 32.1700 -78.2739 North 441 507 34,900 -60 Descending Jacksonville Center
11:49PM 32.2903 -78.2531 North 441 507 34,900  Level Jacksonville Center
11:50PM 32.4228 -78.2217 11° North 441 507 35,000  Climbing Jacksonville Center
11:51PM 32.5450 -78.2006 North 441 507 35,000  Level Jacksonville Center
11:52PM 32.6656 -78.1819 North 441 507 35,000  Level Jacksonville Center
11:53PM 32.7856 -78.1586 North 441 507 35,000 -60 Level Jacksonville Center
11:54PM 32.9039 -78.1375 North 441 507 34,900 -60 Descending Jacksonville Center
11:55PM 33.0261 -78.1161 North 441 507 34,900  Level Jacksonville Center
11:56PM 33.1442 -78.0950 North 441 507 34,900  Level Jacksonville Center
11:57PM 33.2644 -78.0736 North 441 507 35,000  Climbing Jacksonville Center
11:58PM 33.3825 -78.0522 North 436 502 35,000  Level Jacksonville Center
11:59PM 33.4986 -78.0308 North 436 502 35,000  Level Jacksonville Center
12:00AM 33.6147 -78.0094 North 431 496 35,000 -60 Level Jacksonville Center
12:01AM 33.7517 -77.9844 North 426 490 34,900 -60 Descending Washington Center
12:02AM 33.8650 -77.9631 North 419 482 34,900  Level Washington Center
12:03AM 33.9767 -77.9439 North 412 474 35,000  Climbing Washington Center
12:04AM 34.0897 -77.9225 North 410 472 35,000  Level Washington Center
12:05AM 34.2025 -77.9017 North 410 472 35,000 -60 Level Washington Center
12:06AM 34.3250 -77.8792 North 410 472 34,900 -60 Descending Washington Center
12:07AM 34.4333 -77.8717 North 397 457 34,900  Level Washington Center
12:08AM 34.5414 -77.8700 North 388 447 34,900  Level Washington Center
12:09AM 34.6483 -77.8694 360° North 388 447 35,000  Climbing Washington Center
12:10AM 34.7558 -77.8667 North 387 445 34,900  Descending Washington Center
12:11AM 34.8739 -77.8661 360° North 387 445 35,000  Climbing Washington Center
12:15AM 35.2421 -77.8897 354° North 378 435 35,000  Level FlightAware ADS-B
12:18AM 35.5021 -77.9210 354° North 377 434 35,000  Level FlightAware ADS-B
12:19AM 35.5499 -77.9268 354° North 376 433 35,000  Level FlightAware ADS-B
12:19AM 35.5771 -77.9301 354° North 376 433 35,000  Level FlightAware ADS-B
12:22AM 35.9766 -77.9792 354° North 374 430 35,000  Level FlightAware ADS-B
12:23AM 36.0694 -77.9905 354° North 375 432 35,000  Level FlightAware ADS-B
12:23AM 36.1242 -77.9967 354° North 374 430 35,000  Level Washington Center
12:24AM 36.2278 -78.0100 354° North 374 430 35,000  Level Washington Center
12:25AM 36.3322 -78.0222 355° North 375 432 35,000  Level Washington Center
12:26AM 36.4433 -78.0367 354° North 376 433 35,000  Level Washington Center
12:27AM 36.5483 -78.0497 354° North 376 433 35,000  Level Washington Center
12:28AM 36.6517 -78.0628 354° North 376 433 35,000  Level Washington Center
12:29AM 36.7567 -78.0753 355° North 377 434 35,000  Level Washington Center
12:30AM 36.8628 -78.0883 354° North 379 436 35,000  Level Washington Center
12:34AM 37.2847 -78.1422 354° North 393 452 35,000  Level Washington Center
12:35AM 37.3972 -78.1564 354° North 393 452 35,000  Level Washington Center
12:36AM 37.5261 -78.1739 354° North 404 465 35,100  Climbing Washington Center
12:37AM 37.6281 -78.1850 355° North 417 480 35,000 -60 Descending Washington Center
12:38AM 37.7403 -78.2022 353° North 411 473 35,000  Level Washington Center
12:39AM 37.7729 -78.2006 354° North  Level FlightAware Approximate
12:39AM 37.8506 -78.2139 355° North 400 460 35,000  Level Washington Center
12:40AM 37.8838 -78.2154 354° North  Level FlightAware Approximate
12:40AM 37.9711 -78.2311 354° North 400 460 35,000  Level Washington Center
12:41AM 38.0667 -78.2450 353° North 389 448 35,000  Level Washington Center
12:42AM 38.1769 -78.2594 354° North 389 448 35,000  Level Washington Center
12:43AM 38.2914 -78.2742 354° North 394 453 35,000  Level Washington Center
12:44AM 38.4036 -78.2861 355° North 399 459 35,000  Level Washington Center
12:45AM 38.5181 -78.3036 353° North 406 467 35,000  Level Washington Center
12:46AM 38.6344 -78.3186 354° North 406 467 35,000  Level Washington Center
12:47AM 38.7508 -78.3336 354° North 406 467 35,100  Climbing Washington Center
12:48AM 38.8756 -78.3514 354° North 411 473 35,100 -60 Level Washington Center
12:49AM 38.9939 -78.3667 354° North 411 473 35,000 -60 Descending Washington Center
12:50AM 39.1064 -78.3789 355° North 411 473 35,000  Level Washington Center
12:51AM 39.2225 -78.3967 353° North 411 473 35,000  Level Washington Center
12:52AM 39.3389 -78.4119 354° North 411 473 35,000  Level Washington Center
12:53AM 39.4553 -78.4272 354° North 411 473 35,000  Level Washington Center
12:54AM 39.5736 -78.4428 354° North 411 473 35,000  Level Washington Center
12:55AM 39.6922 -78.4581 354° North 416 479 35,000  Level Washington Center
12:56AM 39.8258 -78.4761 354° North 427 491 35,000  Level Cleveland Center
12:57AM 39.9453 -78.4931 354° North 430 495 35,000  Level Cleveland Center
12:58AM 40.0642 -78.5089 354° North 431 496 35,000  Level Cleveland Center
12:59AM 40.1831 -78.5256 354° North 431 496 35,000  Level Cleveland Center
01:00AM 40.3022 -78.5411 354° North 431 496 35,000  Level Cleveland Center
01:05AM 40.9128 -78.6261 354° North 418 481 35,000  Level FlightAware ADS-B (CYYZ)
01:06AM 40.9737 -78.6343 355° North 416 479 35,000  Level FlightAware ADS-B (CYYZ)
01:06AM 41.0283 -78.6421 354° North 414 476 35,000  Level FlightAware ADS-B (CYYZ)
01:07AM 41.0848 -78.6502 354° North 413 475 35,000 -120 Level FlightAware ADS-B (CYYZ)
01:07AM 41.1396 -78.6581 354° North 415 478 34,900  Descending FlightAware ADS-B (CYYZ)
01:08AM 41.1994 -78.6667 354° North 416 479 35,000 60 Climbing FlightAware ADS-B (CYYZ)
01:08AM 41.2597 -78.6753 354° North 418 481 35,000  Level FlightAware ADS-B (CYYZ)
01:09AM 41.3149 -78.6830 354° North 420 483 35,000  Level FlightAware ADS-B (CYYZ)
01:09AM 41.3748 -78.6915 354° North 420 483 35,000 -1,320 Level FlightAware ADS-B (CYYZ)
01:10AM 41.4324 -78.6999 354° North 426 490 33,700 -2,340 Descending FlightAware ADS-B (CYYZ)
01:10AM 41.4909 -78.7082 354° North 422 486 32,700 -2,220 Descending FlightAware ADS-B (CYYZ)
01:11AM 41.5494 -78.7165 354° North 419 482 31,500 -2,220 Descending FlightAware ADS-B (CYYZ)
01:11AM 41.6049 -78.7244 354° North 415 478 30,500 -2,220 Descending FlightAware ADS-B (CYYZ)
01:12AM 41.6642 -78.7330 354° North 411 473 29,300 -2,340 Descending FlightAware ADS-B (CYYZ)
01:12AM 41.7197 -78.7410 354° North 406 467 28,200 -2,100 Descending FlightAware ADS-B (CYYZ)
01:13AM 41.7757 -78.7491 354° North 402 463 27,200 -2,220 Descending FlightAware ADS-B (CYYZ)
01:13AM 41.8308 -78.7571 354° North 399 459 26,000 -2,340 Descending FlightAware ADS-B (CYYZ)
01:14AM 41.8854 -78.7650 354° North 397 457 24,900 -2,220 Descending FlightAware ADS-B (CYYZ)
01:14AM 41.9373 -78.7726 354° North 394 453 23,800 -2,400 Descending FlightAware ADS-B (CYYZ)
01:15AM 41.9948 -78.7809 354° North 391 450 22,500 -2,340 Descending FlightAware ADS-B (CYYZ)
01:15AM 42.0640 -78.7911 354° North 387 445 21,100 -2,400 Descending FlightAware ADS-B (CYYZ)
01:16AM 42.1181 -78.7989 354° North 383 441 19,800 -2,400 Descending FlightAware ADS-B (CYYZ)
01:16AM 42.1690 -78.8064 354° North 374 430 18,700 -2,280 Descending FlightAware ADS-B (CYYZ)
01:17AM 42.2212 -78.8139 354° North 365 420 17,500 -2,400 Descending FlightAware ADS-B (CYYZ)
01:17AM 42.2705 -78.8211 354° North 358 412 16,300 -2,580 Descending FlightAware ADS-B (CYYZ)
01:18AM 42.3195 -78.8285 354° North 352 405 15,000 -2,280 Descending FlightAware ADS-B (CYYZ)
01:19AM 42.3675 -78.8355 354° North 341 392 14,000 -2,220 Descending FlightAware ADS-B (CYYZ)
01:19AM 42.4140 -78.8424 354° North 336 387 12,800 -2,220 Descending FlightAware ADS-B (CYYZ)
01:20AM 42.4601 -78.8491 354° North 327 376 11,800 -1,800 Descending FlightAware ADS-B (CYYZ)
01:20AM 42.4891 -78.8482 North 333 383 11,300 -1,260 Descending FlightAware ADS-B (CYYZ)
01:20AM 42.5333 -78.8364 11° North 312 359 10,800 -900 Descending FlightAware ADS-B (CYYZ)
01:21AM 42.5734 -78.8256 11° North 284 327 10,400 -1,020 Descending FlightAware ADS-B (CYYZ)
01:21AM 42.6051 -78.8174 10° North 274 315 9,900 -1,380 Descending FlightAware ADS-B (CYYZ)
01:21AM 42.6238 -78.8127 10° North 274 315 9,500 -1,620 Descending FlightAware ADS-B (CYYZ)
01:22AM 42.6425 -78.8081 10° North 274 315 9,100 -1,620 Descending FlightAware ADS-B (CYYZ)
01:22AM 42.6601 -78.8037 10° North 273 314 8,700 -1,680 Descending FlightAware ADS-B (CYYZ)
01:22AM 42.6789 -78.7990 10° North 270 311 8,300 -1,440 Descending FlightAware ADS-B (CYYZ)
01:22AM 42.6977 -78.7941 11° North 268 308 8,000 -1,380 Descending FlightAware ADS-B (CYYZ)
01:23AM 42.7157 -78.7895 10° North 268 308 7,600 -1,800 Descending FlightAware ADS-B (CYYZ)
01:23AM 42.7342 -78.7847 11° North 270 311 7,100 -1,800 Descending FlightAware ADS-B (CYYZ)
01:23AM 42.7528 -78.7798 11° North 269 310 6,700 -1,440 Descending FlightAware ADS-B (CYYZ)
01:23AM 42.7661 -78.7763 11° North 266 306 6,400 -1,380 Descending FlightAware ADS-B (CYYZ)
01:24AM 42.7949 -78.7688 11° North 265 305 5,900 -720 Descending FlightAware ADS-B (CYYZ)
01:24AM 42.8281 -78.7601 10° North 262 302 5,800 -120 Descending FlightAware ADS-B (CYYZ)
01:25AM 42.8507 -78.7541 11° North 261 300 5,800  Level FlightAware ADS-B (CYYZ)
01:25AM 42.8778 -78.7470 10° North 258 297 5,800  Level FlightAware ADS-B (CYYZ)
01:25AM 42.9001 -78.7412 11° North 245 282 5,800 -180 Level FlightAware ADS-B (CYYZ)
01:26AM 42.9224 -78.7353 11° North 240 276 5,700 -180 Descending FlightAware ADS-B (CYYZ)
01:26AM 42.9427 -78.7300 11° North 231 266 5,700 120 Level FlightAware ADS-B (CYYZ)
01:26AM 42.9636 -78.7244 11° North 220 253 5,800  Climbing FlightAware ADS-B (CYYZ)
01:27AM 42.9781 -78.7206 11° North 220 253 5,700 -840 Descending FlightAware ADS-B (CYYZ)
01:27AM 42.9893 -78.7177 10° North 210 242 5,400 -1,440 Descending FlightAware ADS-B (CYYZ)
01:27AM 43.0051 -78.7138 10° North 207 238 5,000 -1,680 Descending FlightAware ADS-B (CYYZ)
01:27AM 43.0196 -78.7100 11° North 205 236 4,600 -1,800 Descending FlightAware ADS-B (CYYZ)
01:28AM 43.0347 -78.7060 10° North 204 235 4,100 -1,740 Descending FlightAware ADS-B (CYYZ)
01:28AM 43.0486 -78.7024 11° North 204 235 3,700 -1,200 Descending FlightAware ADS-B (CYYZ)
01:29AM 43.1167 -78.7167 11° North 192 221 2,200 -660 Descending Buffalo TRACON
01:30AM 43.1167 -78.7833 270° West 160 184 2,200 -300 Level Buffalo TRACON
01:31AM 43.1167 -78.8500 270° West 158 182 1,700 -600 Descending Buffalo TRACON
01:32AM 43.1167 -78.8833 270° West 117 135 1,100 -600 Descending Buffalo TRACON